Blissfield, Ohio
Current Conditions -  °F | °C
As of 6:35 PM on Thursday 18 Dec 2014 (Local Time) from K4I3 Reporting Station
Light Snow Light Snow  
Wind Chill: 27°   Ceiling: 800
Heat Index: 27°   Visibility: 5mi
Dew Point: 23°   Wind: 3mph
Humidity: 86%   Direction: 260°W
Pressure: 30.17"   Gusts: NA
Location:  40.4°N, 81.97°W
Report Text: K4I3 182335Z AUTO 26003KT 5SM -SN BKN008 OVC017 M03/M05 A3017 RMK AO2
Loading
Personal Weather Stations






























Interactive Weather Map New forecast layout! Learn more

10-Day Weather Forecast

Advertisements
Track Severe Weather on mobile